Pathfork, Kentucky
Current Conditions -  °F | °C
As of 7:15 AM on Sunday 25 Jan 2015 (Local Time) from KI35 Reporting Station
Scattered Clouds Scattered Clouds  
Wind Chill: 30°   Ceiling: Unl
Heat Index: 30°   Visibility: 7mi
Dew Point: 30°   Wind: 3mph
Humidity: 100%   Direction: 80°E
Pressure: 29.84"   Gusts: NA
Location:  36.76°N, 83.46°W
Report Text: KI35 251215Z AUTO 08003KT 7SM SCT002 M01/M01 A2984 RMK AO1
Loading
Personal Weather Stations






























Interactive Weather Map New forecast layout! Learn more

10-Day Weather Forecast

Advertisements
Track Severe Weather on mobile